createdAt,value
2023-02-28T00:01:20.801Z,3.25
2023-02-28T00:03:47.323Z,3.30
2023-02-28T00:06:13.914Z,3.45
2023-02-28T00:08:40.366Z,3.53
2023-02-28T00:11:12.316Z,3.80
2023-02-28T00:13:41.701Z,3.72
2023-02-28T00:16:11.186Z,3.60
2023-02-28T00:18:37.877Z,3.70
2023-02-28T00:21:05.179Z,3.38
2023-02-28T00:23:31.802Z,3.60
2023-02-28T00:25:58.406Z,3.17
2023-02-28T00:28:25.245Z,3.60
2023-02-28T00:30:51.859Z,3.20
2023-02-28T00:33:18.317Z,3.78
2023-02-28T00:35:47.372Z,3.65
2023-02-28T00:38:14.740Z,3.67
2023-02-28T00:40:41.170Z,4.13
2023-02-28T00:43:07.537Z,4.20
2023-02-28T00:45:33.880Z,4.40
2023-02-28T00:48:00.267Z,4.10
2023-02-28T00:50:26.923Z,4.47
2023-02-28T00:52:53.322Z,4.60
2023-02-28T00:55:19.741Z,4.82
2023-02-28T00:57:46.104Z,4.60
2023-02-28T01:00:13.132Z,4.40
2023-02-28T01:02:39.616Z,5.00
2023-02-28T01:05:06.410Z,4.80
2023-02-28T01:07:32.775Z,4.90
2023-02-28T01:09:59.163Z,5.30
2023-02-28T01:12:25.797Z,5.07
2023-02-28T01:14:52.193Z,5.03
2023-02-28T01:17:18.653Z,4.80
2023-02-28T01:19:44.997Z,4.53
2023-02-28T01:22:11.377Z,4.82
2023-02-28T01:24:38.239Z,4.80
2023-02-28T01:27:04.600Z,4.95
2023-02-28T01:29:30.967Z,4.65
2023-02-28T01:31:58.056Z,4.40
2023-02-28T01:34:24.486Z,4.80
2023-02-28T01:36:50.845Z,5.00
2023-02-28T01:39:17.197Z,5.05
2023-02-28T01:41:44.052Z,5.20
2023-02-28T01:44:48.144Z,4.18
2023-02-28T01:47:14.802Z,4.53
2023-02-28T01:49:41.269Z,4.93
2023-02-28T01:52:07.974Z,5.10
2023-02-28T01:54:35.701Z,4.95
2023-02-28T01:57:07.763Z,5.00
2023-02-28T01:59:36.769Z,4.40
2023-02-28T02:02:03.348Z,4.50
2023-02-28T02:04:42.275Z,4.75
2023-02-28T02:07:08.998Z,4.40
2023-02-28T02:09:35.477Z,4.22
2023-02-28T02:12:23.375Z,4.10
2023-02-28T02:15:24.583Z,4.50
2023-02-28T02:17:54.136Z,4.43
2023-02-28T02:20:45.755Z,4.28
2023-02-28T02:23:34.154Z,4.60
2023-02-28T02:26:12.354Z,4.70
2023-02-28T02:28:53.727Z,4.50
2023-02-28T02:31:41.478Z,3.75
2023-02-28T02:34:40.927Z,4.60
2023-02-28T02:37:25.288Z,4.22
2023-02-28T02:39:57.722Z,4.65
2023-02-28T02:42:36.056Z,4.30
2023-02-28T02:45:08.216Z,4.22
2023-02-28T02:47:36.829Z,4.10
2023-02-28T02:50:07.010Z,4.22
2023-02-28T02:52:42.013Z,4.00
2023-02-28T02:55:12.086Z,4.07
2023-02-28T02:57:47.739Z,3.83
2023-02-28T03:00:16.884Z,4.07
2023-02-28T03:02:44.281Z,3.92
2023-02-28T03:05:20.092Z,4.35
2023-02-28T03:07:46.485Z,4.68
2023-02-28T03:10:33.243Z,4.28
2023-02-28T03:13:09.917Z,3.97
2023-02-28T03:15:59.393Z,4.13
2023-02-28T03:18:48.772Z,3.72
2023-02-28T03:21:33.785Z,4.10
2023-02-28T03:24:09.508Z,4.22
2023-02-28T03:26:40.782Z,4.13
2023-02-28T03:29:31.671Z,3.97
2023-02-28T03:32:06.866Z,4.50
2023-02-28T03:34:35.525Z,4.20
2023-02-28T03:37:14.758Z,4.47
2023-02-28T03:39:45.041Z,4.82
2023-02-28T03:42:19.243Z,4.28
2023-02-28T03:44:49.769Z,4.60
2023-02-28T03:47:20.874Z,4.72
2023-02-28T03:50:03.190Z,4.35
2023-02-28T03:52:34.344Z,4.38
2023-02-28T03:55:07.364Z,4.70
2023-02-28T03:57:59.702Z,4.55
2023-02-28T04:00:33.748Z,4.53
2023-02-28T04:03:00.261Z,4.50
2023-02-28T04:05:26.867Z,4.95
2023-02-28T04:07:53.819Z,4.30
2023-02-28T04:10:20.209Z,4.25
2023-02-28T04:12:46.566Z,4.07
2023-02-28T04:15:13.024Z,3.72
2023-02-28T04:17:39.401Z,4.13
2023-02-28T04:20:10.477Z,4.38
2023-02-28T04:22:38.095Z,4.43
2023-02-28T04:25:05.040Z,4.28
2023-02-28T04:27:32.789Z,3.88
2023-02-28T04:29:59.356Z,4.40
2023-02-28T04:32:25.840Z,4.15
2023-02-28T04:34:52.315Z,4.10
2023-02-28T04:37:18.724Z,4.20
2023-02-28T04:39:45.125Z,3.78
2023-02-28T04:42:12.171Z,3.83
2023-02-28T04:44:38.543Z,3.63
2023-02-28T04:47:04.891Z,3.72
2023-02-28T04:49:31.713Z,3.55
2023-02-28T04:51:58.067Z,3.97
2023-02-28T04:54:24.450Z,3.33
2023-02-28T04:56:51.106Z,3.47
2023-02-28T04:59:17.881Z,3.42
2023-02-28T05:01:47.972Z,4.13
2023-02-28T05:04:14.731Z,3.35
2023-02-28T05:06:41.246Z,3.10
2023-02-28T05:09:07.574Z,3.55
2023-02-28T05:11:35.973Z,3.40
2023-02-28T05:14:04.758Z,3.75
2023-02-28T05:16:31.940Z,3.75
2023-02-28T05:18:58.431Z,3.50
2023-02-28T05:21:33.694Z,3.20
2023-02-28T05:24:03.038Z,3.30
2023-02-28T05:26:29.969Z,3.10
2023-02-28T05:28:56.910Z,3.67
2023-02-28T05:31:23.665Z,3.60
2023-02-28T05:33:50.092Z,3.30
2023-02-28T05:36:16.561Z,3.30
2023-02-28T05:38:43.004Z,3.38
2023-02-28T05:41:11.038Z,3.65
2023-02-28T05:43:38.208Z,3.10
2023-02-28T05:46:06.574Z,3.35
2023-02-28T05:48:34.383Z,3.20
2023-02-28T05:51:00.816Z,3.42
2023-02-28T05:53:27.304Z,3.00
2023-02-28T05:55:53.858Z,3.30
2023-02-28T05:58:20.241Z,2.70
2023-02-28T06:00:46.623Z,3.50
2023-02-28T06:03:13.018Z,3.22
2023-02-28T06:05:39.510Z,3.10
2023-02-28T06:08:07.872Z,3.25
2023-02-28T06:10:37.473Z,3.50
2023-02-28T06:13:04.892Z,3.50
2023-02-28T06:15:31.763Z,3.40
2023-02-28T06:17:58.314Z,4.88
2023-02-28T06:20:25.776Z,7.10
2023-02-28T06:22:52.249Z,6.40
2023-02-28T06:25:18.881Z,7.78
2023-02-28T06:27:45.488Z,3.92
2023-02-28T06:30:12.515Z,5.00
2023-02-28T06:32:38.908Z,3.15
2023-02-28T06:35:05.519Z,4.80
2023-02-28T06:37:32.581Z,4.10
2023-02-28T06:39:59.159Z,3.67
2023-02-28T06:42:29.703Z,4.05
2023-02-28T06:44:57.042Z,4.13
2023-02-28T06:47:23.380Z,3.90
2023-02-28T06:49:49.928Z,3.58
2023-02-28T06:52:16.726Z,3.75
2023-02-28T06:54:43.192Z,3.65
2023-02-28T06:57:09.585Z,3.97
2023-02-28T06:59:36.176Z,4.05
2023-02-28T07:02:03.064Z,4.40
2023-02-28T07:04:29.600Z,3.83
2023-02-28T07:06:57.663Z,4.10
2023-02-28T07:09:25.884Z,4.38
2023-02-28T07:11:52.236Z,4.05
2023-02-28T07:14:19.636Z,4.30
2023-02-28T07:16:46.821Z,4.70
2023-02-28T07:19:13.397Z,4.63
2023-02-28T07:21:39.900Z,4.28
2023-02-28T07:24:06.765Z,4.25
2023-02-28T07:26:35.038Z,4.30
2023-02-28T07:29:01.396Z,4.00
2023-02-28T07:31:28.309Z,4.45
2023-02-28T07:33:54.901Z,4.78
2023-02-28T07:36:21.309Z,4.53
2023-02-28T07:38:50.569Z,4.60
2023-02-28T07:41:18.280Z,4.95
2023-02-28T07:43:45.473Z,5.38
2023-02-28T07:46:15.903Z,4.85
2023-02-28T07:48:42.836Z,5.05
2023-02-28T07:51:09.161Z,4.95
2023-02-28T07:53:35.582Z,4.75
2023-02-28T07:56:03.473Z,4.50
2023-02-28T07:58:30.910Z,4.75
2023-02-28T08:00:58.070Z,4.28
2023-02-28T08:03:24.939Z,4.40
2023-02-28T08:05:51.669Z,4.72
2023-02-28T08:08:18.031Z,4.68
2023-02-28T08:10:44.804Z,4.85
2023-02-28T08:13:11.218Z,4.32
2023-02-28T08:15:37.554Z,4.30
2023-02-28T08:18:04.192Z,4.55
2023-02-28T08:20:30.577Z,4.22
2023-02-28T08:22:56.934Z,4.40
2023-02-28T08:25:23.270Z,4.28
2023-02-28T08:27:52.228Z,4.10
2023-02-28T08:30:18.715Z,4.40
2023-02-28T08:32:45.148Z,4.45
2023-02-28T08:35:11.546Z,4.43
2023-02-28T08:37:38.064Z,4.28
2023-02-28T08:40:05.003Z,4.55
2023-02-28T08:42:33.007Z,4.78
2023-02-28T08:44:59.382Z,4.35
2023-02-28T08:47:26.052Z,4.57
2023-02-28T08:49:52.446Z,4.32
2023-02-28T08:52:19.127Z,4.47
2023-02-28T08:54:45.504Z,5.07
2023-02-28T08:57:11.868Z,4.88
2023-02-28T08:59:38.211Z,4.55
2023-02-28T09:02:04.537Z,4.65
2023-02-28T09:04:31.939Z,3.80
2023-02-28T09:06:58.445Z,3.80
2023-02-28T09:09:24.816Z,4.28
2023-02-28T09:11:51.190Z,4.03
2023-02-28T09:14:18.333Z,3.88
2023-02-28T09:16:44.839Z,3.92
2023-02-28T09:19:12.937Z,4.25
2023-02-28T09:21:39.363Z,3.95
2023-02-28T09:24:06.005Z,4.55
2023-02-28T09:26:38.844Z,4.22
2023-02-28T09:29:14.066Z,4.03
2023-02-28T09:31:42.891Z,3.85
2023-02-28T09:34:09.409Z,3.90
2023-02-28T09:36:45.295Z,4.05
2023-02-28T09:39:13.367Z,4.03
2023-02-28T09:41:49.369Z,3.72
2023-02-28T09:44:36.491Z,4.65
2023-02-28T09:47:18.784Z,4.10
2023-02-28T09:49:47.830Z,4.03
2023-02-28T09:52:23.171Z,4.00
2023-02-28T09:54:49.553Z,3.95
2023-02-28T09:57:28.179Z,4.25
2023-02-28T10:00:18.224Z,3.92
2023-02-28T10:03:13.267Z,4.05
2023-02-28T10:05:44.524Z,4.38
2023-02-28T10:08:45.948Z,4.43
2023-02-28T10:11:16.590Z,4.28
2023-02-28T10:14:12.192Z,4.07
2023-02-28T10:16:46.116Z,4.60
2023-02-28T10:21:58.406Z,4.57
2023-02-28T10:24:29.703Z,4.50
2023-02-28T10:27:01.122Z,4.47
2023-02-28T10:29:30.754Z,4.32
2023-02-28T10:31:57.200Z,4.32
2023-02-28T10:34:23.537Z,4.70
2023-02-28T10:36:50.396Z,4.47
2023-02-28T10:39:37.333Z,5.22
2023-02-28T10:42:04.216Z,5.32
2023-02-28T10:44:31.929Z,5.45
2023-02-28T10:46:58.843Z,5.13
2023-02-28T10:49:28.784Z,4.65
2023-02-28T10:52:00.255Z,5.15
2023-02-28T10:54:36.298Z,4.72
2023-02-28T10:57:29.171Z,5.20
2023-02-28T11:00:13.676Z,5.30
2023-02-28T11:02:43.670Z,5.15
2023-02-28T11:05:29.710Z,5.53
2023-02-28T11:08:00.276Z,4.47
2023-02-28T11:10:30.058Z,4.82
2023-02-28T11:12:58.709Z,5.13
2023-02-28T11:15:31.859Z,4.45
2023-02-28T11:18:03.488Z,5.30
2023-02-28T11:20:32.407Z,5.25
2023-02-28T11:22:59.859Z,5.13
2023-02-28T11:25:37.763Z,4.50
2023-02-28T11:28:07.543Z,5.00
2023-02-28T11:30:39.274Z,4.78
2023-02-28T11:33:26.616Z,4.60
2023-02-28T11:35:54.147Z,4.65
2023-02-28T11:38:20.552Z,4.72
2023-02-28T11:40:56.348Z,5.22
2023-02-28T11:43:31.829Z,4.78
2023-02-28T11:46:13.554Z,5.13
2023-02-28T11:48:59.669Z,5.50
2023-02-28T11:51:33.642Z,4.95
2023-02-28T11:57:14.191Z,4.55
2023-02-28T11:59:55.475Z,4.70
2023-02-28T12:03:01.205Z,5.47
2023-02-28T12:05:38.227Z,5.55
2023-02-28T12:08:27.114Z,5.07
2023-02-28T12:11:05.898Z,4.70
2023-02-28T12:13:42.503Z,5.35
2023-02-28T12:16:30.194Z,5.70
2023-02-28T12:19:11.675Z,5.45
2023-02-28T12:22:06.653Z,5.35
2023-02-28T12:24:53.797Z,5.93
2023-02-28T12:27:23.203Z,6.03
2023-02-28T12:30:14.432Z,5.60
2023-02-28T12:32:44.698Z,5.38
2023-02-28T12:35:10.984Z,5.90
2023-02-28T12:37:43.879Z,5.55
2023-02-28T12:40:22.261Z,5.13
2023-02-28T12:42:52.976Z,6.30
2023-02-28T12:45:28.951Z,5.55
2023-02-28T12:48:02.225Z,5.85
2023-02-28T12:50:31.153Z,8.17
2023-02-28T12:53:05.943Z,5.70
2023-02-28T12:55:47.454Z,5.35
2023-02-28T12:58:35.163Z,5.60
2023-02-28T13:01:26.823Z,5.90
2023-02-28T13:04:17.242Z,5.38
2023-02-28T13:07:02.780Z,5.47
2023-02-28T13:09:30.511Z,5.40
2023-02-28T13:11:57.890Z,5.25
2023-02-28T13:14:31.429Z,5.50
2023-02-28T13:17:16.986Z,5.88
2023-02-28T13:19:52.481Z,5.30
2023-02-28T13:22:26.544Z,5.40
2023-02-28T13:27:26.245Z,5.93
2023-02-28T13:29:53.765Z,6.00
2023-02-28T13:32:29.320Z,5.82
2023-02-28T13:34:55.559Z,5.45
2023-02-28T13:37:21.813Z,4.60
2023-02-28T13:39:48.769Z,5.40
2023-02-28T13:42:43.127Z,5.53
2023-02-28T13:45:12.117Z,5.93
2023-02-28T13:47:47.647Z,5.57
2023-02-28T13:50:33.823Z,5.57
2023-02-28T13:53:15.952Z,5.65
2023-02-28T13:56:23.377Z,6.15
2023-02-28T13:58:56.471Z,5.45
2023-02-28T14:02:00.625Z,5.55
2023-02-28T14:04:39.069Z,5.23
2023-02-28T14:07:05.968Z,5.65
2023-02-28T14:09:38.640Z,5.18
2023-02-28T14:12:42.342Z,5.78
2023-02-28T14:15:29.471Z,5.22
2023-02-28T14:17:56.599Z,6.45
2023-02-28T14:20:26.141Z,5.60
2023-02-28T14:23:05.463Z,5.03
2023-02-28T14:26:16.482Z,5.65
2023-02-28T14:29:21.002Z,5.90
2023-02-28T14:32:12.291Z,5.55
2023-02-28T14:35:10.588Z,5.60
2023-02-28T14:37:40.117Z,5.63
2023-02-28T14:40:15.104Z,5.70
2023-02-28T14:43:17.355Z,4.97
2023-02-28T14:45:43.727Z,6.28
2023-02-28T14:48:10.867Z,5.20
2023-02-28T14:50:38.146Z,5.00
2023-02-28T14:53:05.248Z,5.68
2023-02-28T14:55:34.477Z,4.97
2023-02-28T14:58:07.435Z,6.03
2023-02-28T15:00:36.325Z,6.20
2023-02-28T15:03:19.534Z,5.70
2023-02-28T15:05:53.507Z,5.65
2023-02-28T15:08:22.834Z,5.43
2023-02-28T15:10:57.228Z,6.00
2023-02-28T15:13:24.823Z,5.55
2023-02-28T15:16:03.009Z,5.43
2023-02-28T15:18:51.224Z,5.63
2023-02-28T15:21:19.323Z,5.90
2023-02-28T15:23:54.970Z,6.43
2023-02-28T15:26:24.313Z,5.95
2023-02-28T15:28:56.075Z,5.82
2023-02-28T15:31:27.966Z,6.18
2023-02-28T15:33:56.753Z,5.70
2023-02-28T15:36:30.298Z,5.30
2023-02-28T15:39:01.537Z,5.75
2023-02-28T15:41:38.989Z,5.38
2023-02-28T15:44:27.538Z,5.18
2023-02-28T15:47:02.305Z,5.03
2023-02-28T15:49:30.831Z,5.55
2023-02-28T15:52:00.225Z,5.70
2023-02-28T15:54:45.716Z,5.80
2023-02-28T15:57:17.147Z,5.40
2023-02-28T15:59:50.858Z,5.95
2023-02-28T16:02:21.733Z,5.95
2023-02-28T16:05:10.861Z,5.65
2023-02-28T16:07:42.224Z,6.00
2023-02-28T16:10:09.937Z,6.30
2023-02-28T16:12:38.102Z,6.15
2023-02-28T16:15:10.369Z,6.13
2023-02-28T16:17:39.447Z,6.25
2023-02-28T16:20:24.413Z,5.63
2023-02-28T16:22:51.349Z,6.63
2023-02-28T16:25:24.210Z,5.88
2023-02-28T16:27:54.613Z,5.95
2023-02-28T16:30:23.365Z,5.70
2023-02-28T16:32:50.704Z,6.22
2023-02-28T16:35:18.896Z,6.53
2023-02-28T16:37:45.490Z,5.57
2023-02-28T16:40:21.738Z,6.88
2023-02-28T16:42:50.122Z,6.50
2023-02-28T16:45:24.281Z,6.13
2023-02-28T16:47:51.067Z,6.10
2023-02-28T16:50:25.595Z,6.57
2023-02-28T16:52:55.446Z,6.38
2023-02-28T16:55:23.782Z,6.05
2023-02-28T16:57:55.037Z,5.88
2023-02-28T17:00:21.975Z,6.38
2023-02-28T17:02:48.497Z,6.30
2023-02-28T17:05:15.829Z,5.45
2023-02-28T17:07:42.654Z,6.13
2023-02-28T17:10:16.917Z,6.60
2023-02-28T17:12:43.795Z,5.78
2023-02-28T17:15:11.999Z,6.38
2023-02-28T17:17:38.700Z,6.65
2023-02-28T17:20:06.580Z,6.07
2023-02-28T17:22:33.319Z,6.65
2023-02-28T17:24:59.722Z,6.28
2023-02-28T17:27:26.152Z,5.70
2023-02-28T17:29:52.594Z,6.55
2023-02-28T17:32:19.032Z,6.55
2023-02-28T17:34:46.706Z,6.28
2023-02-28T17:37:13.137Z,6.43
2023-02-28T17:39:39.520Z,5.95
2023-02-28T17:42:06.172Z,5.65
2023-02-28T17:44:32.514Z,5.65
2023-02-28T17:46:59.787Z,6.03
2023-02-28T17:49:26.250Z,5.90
2023-02-28T17:51:52.597Z,6.07
2023-02-28T17:54:19.308Z,6.22
2023-02-28T17:56:45.844Z,5.93
2023-02-28T17:59:12.787Z,5.80
2023-02-28T18:01:39.657Z,6.00
2023-02-28T18:04:06.097Z,6.75
2023-02-28T18:06:37.427Z,6.28
2023-02-28T18:09:03.854Z,5.65
2023-02-28T18:11:45.834Z,5.60
2023-02-28T18:14:12.353Z,5.07
2023-02-28T18:16:40.908Z,5.35
2023-02-28T18:19:08.368Z,5.28
2023-02-28T18:21:34.776Z,5.28
2023-02-28T18:24:01.155Z,5.70
2023-02-28T18:26:30.265Z,5.13
2023-02-28T18:28:56.934Z,5.90
2023-02-28T18:31:23.371Z,6.22
2023-02-28T18:33:51.202Z,5.53
2023-02-28T18:36:18.699Z,5.75
2023-02-28T18:38:45.814Z,6.22
2023-02-28T18:41:12.626Z,6.07
2023-02-28T18:43:39.289Z,5.60
2023-02-28T18:46:07.532Z,5.95
2023-02-28T18:48:34.306Z,6.03
2023-02-28T18:51:12.874Z,5.88
2023-02-28T18:53:40.322Z,7.00
2023-02-28T18:56:08.001Z,6.18
2023-02-28T18:58:34.734Z,5.97
2023-02-28T19:01:02.482Z,6.55
2023-02-28T19:03:29.057Z,6.30
2023-02-28T19:05:59.846Z,5.95
2023-02-28T19:08:26.709Z,6.18
2023-02-28T19:10:53.212Z,6.18
2023-02-28T19:13:20.925Z,5.80
2023-02-28T19:15:47.690Z,6.68
2023-02-28T19:18:14.078Z,6.22
2023-02-28T19:20:40.434Z,7.10
2023-02-28T19:23:06.778Z,7.47
2023-02-28T19:25:33.124Z,9.65
2023-02-28T19:27:59.663Z,6.60
2023-02-28T19:30:26.127Z,6.30
2023-02-28T19:32:52.525Z,6.10
2023-02-28T19:35:19.028Z,6.20
2023-02-28T19:37:45.500Z,6.50
2023-02-28T19:40:15.548Z,6.95
2023-02-28T19:42:41.931Z,6.60
2023-02-28T19:45:09.934Z,6.28
2023-02-28T19:47:36.315Z,6.15
2023-02-28T19:50:02.748Z,7.30
2023-02-28T19:52:29.128Z,6.43
2023-02-28T19:54:55.490Z,6.32
2023-02-28T19:57:21.877Z,6.38
2023-02-28T19:59:48.678Z,6.30
2023-02-28T20:02:17.511Z,6.50
2023-02-28T20:04:48.510Z,7.10
2023-02-28T20:07:21.825Z,6.97
2023-02-28T20:09:48.825Z,6.93
2023-02-28T20:12:24.343Z,6.28
2023-02-28T20:14:51.724Z,6.78
2023-02-28T20:17:18.265Z,7.10
2023-02-28T20:19:45.835Z,6.80
2023-02-28T20:22:12.269Z,7.63
2023-02-28T20:24:38.659Z,7.32
2023-02-28T20:27:05.256Z,7.05
2023-02-28T20:29:32.110Z,6.95
2023-02-28T20:31:58.573Z,7.22
2023-02-28T20:34:25.152Z,8.10
2023-02-28T20:36:51.675Z,7.30
2023-02-28T20:39:20.101Z,7.25
2023-02-28T20:41:47.190Z,8.02
2023-02-28T20:44:15.408Z,7.53
2023-02-28T20:46:46.145Z,7.80
2023-02-28T20:49:15.687Z,8.25
2023-02-28T20:51:54.710Z,7.25
2023-02-28T20:54:21.556Z,7.40
2023-02-28T20:56:48.130Z,7.50
2023-02-28T20:59:14.500Z,8.50
2023-02-28T21:01:45.359Z,7.80
2023-02-28T21:04:11.748Z,8.25
2023-02-28T21:06:40.040Z,7.57
2023-02-28T21:09:08.625Z,8.52
2023-02-28T21:11:36.812Z,8.00
2023-02-28T21:14:06.064Z,8.35
2023-02-28T21:16:33.042Z,8.75
2023-02-28T21:19:05.461Z,8.45
2023-02-28T21:21:42.903Z,8.30
2023-02-28T21:24:13.273Z,9.13
2023-02-28T21:26:41.139Z,9.70
2023-02-28T21:29:07.589Z,9.77
2023-02-28T21:31:35.429Z,9.48
2023-02-28T21:34:03.822Z,9.85
2023-02-28T21:36:35.361Z,9.63
2023-02-28T21:39:07.786Z,8.73
2023-02-28T21:41:35.249Z,9.90
2023-02-28T21:44:01.654Z,9.68
2023-02-28T21:46:30.028Z,9.45
2023-02-28T21:48:57.527Z,9.40
2023-02-28T21:51:27.108Z,9.98
2023-02-28T21:53:54.266Z,10.45
2023-02-28T21:56:23.551Z,10.27
2023-02-28T21:58:50.262Z,10.27
2023-02-28T22:01:20.840Z,9.43
2023-02-28T22:03:48.644Z,9.70
2023-02-28T22:06:20.802Z,10.95
2023-02-28T22:08:49.631Z,9.70
2023-02-28T22:11:16.769Z,10.15
2023-02-28T22:13:43.776Z,9.77
2023-02-28T22:16:16.198Z,10.77
2023-02-28T22:18:42.988Z,9.65
2023-02-28T22:21:10.846Z,10.15
2023-02-28T22:23:38.412Z,11.65
2023-02-28T22:26:07.050Z,10.52
2023-02-28T22:28:34.054Z,9.52
2023-02-28T22:31:01.048Z,10.57
2023-02-28T22:33:27.947Z,10.73
2023-02-28T22:35:54.336Z,9.85
2023-02-28T22:38:20.783Z,10.15
2023-02-28T22:40:47.241Z,10.88
2023-02-28T22:43:13.599Z,10.52
2023-02-28T22:45:40.961Z,10.15
2023-02-28T22:48:09.064Z,11.07
2023-02-28T22:50:35.476Z,10.43
2023-02-28T22:53:01.970Z,10.82
2023-02-28T22:55:28.479Z,10.20
2023-02-28T22:57:54.910Z,10.57
2023-02-28T23:00:21.667Z,11.00
2023-02-28T23:02:48.059Z,11.05
2023-02-28T23:05:14.869Z,10.15
2023-02-28T23:07:42.008Z,9.90
2023-02-28T23:10:12.943Z,10.10
2023-02-28T23:12:50.038Z,10.23
2023-02-28T23:15:17.934Z,11.07
2023-02-28T23:17:45.014Z,10.50
2023-02-28T23:20:13.216Z,11.20
2023-02-28T23:22:39.574Z,10.60
2023-02-28T23:25:06.565Z,10.90
2023-02-28T23:27:33.521Z,10.00
2023-02-28T23:29:59.876Z,11.10
2023-02-28T23:32:26.339Z,10.65
2023-02-28T23:34:54.788Z,11.07
2023-02-28T23:37:21.189Z,10.70
2023-02-28T23:39:47.544Z,11.20
2023-02-28T23:42:14.132Z,11.88
2023-02-28T23:44:40.651Z,10.60
2023-02-28T23:47:07.094Z,11.50
2023-02-28T23:49:33.564Z,11.00
2023-02-28T23:52:00.020Z,10.38
2023-02-28T23:54:27.162Z,10.45
2023-02-28T23:56:54.017Z,11.32
2023-02-28T23:59:20.902Z,11.18
